sensor_id;sensor_type;location;lat;lon;timestamp;pressure;altitude;pressure_sealevel;temperature;humidity
76011;BME280;64701;43.536;1.478;2023-04-12T00:01:01;99292.44;;;13.95;64.12
76011;BME280;64701;43.536;1.478;2023-04-12T00:03:26;99292.88;;;13.92;63.72
76011;BME280;64701;43.536;1.478;2023-04-12T00:05:51;99284.13;;;13.85;64.20
76011;BME280;64701;43.536;1.478;2023-04-12T00:08:23;99282.34;;;13.79;66.29
76011;BME280;64701;43.536;1.478;2023-04-12T00:10:48;99282.78;;;13.76;63.86
76011;BME280;64701;43.536;1.478;2023-04-12T00:13:13;99281.97;;;13.75;63.23
76011;BME280;64701;43.536;1.478;2023-04-12T00:15:39;99263.56;;;13.74;63.38
76011;BME280;64701;43.536;1.478;2023-04-12T00:18:04;99257.94;;;13.64;64.57
76011;BME280;64701;43.536;1.478;2023-04-12T00:20:30;99258.56;;;13.59;65.10
76011;BME280;64701;43.536;1.478;2023-04-12T00:22:55;99248.97;;;13.58;64.54
76011;BME280;64701;43.536;1.478;2023-04-12T00:25:21;99241.19;;;13.57;65.49
76011;BME280;64701;43.536;1.478;2023-04-12T00:27:46;99237.31;;;13.53;64.29
76011;BME280;64701;43.536;1.478;2023-04-12T00:30:12;99233.06;;;13.52;64.61
76011;BME280;64701;43.536;1.478;2023-04-12T00:32:37;99233.47;;;13.48;65.00
76011;BME280;64701;43.536;1.478;2023-04-12T00:35:02;99234.34;;;13.42;64.99
76011;BME280;64701;43.536;1.478;2023-04-12T00:37:28;99240.13;;;13.39;64.92
76011;BME280;64701;43.536;1.478;2023-04-12T00:39:53;99234.19;;;13.37;64.54
76011;BME280;64701;43.536;1.478;2023-04-12T00:42:18;99228.91;;;13.31;65.38
76011;BME280;64701;43.536;1.478;2023-04-12T00:44:43;99224.25;;;13.26;65.66
76011;BME280;64701;43.536;1.478;2023-04-12T00:47:09;99214.03;;;13.23;64.70
76011;BME280;64701;43.536;1.478;2023-04-12T00:49:34;99197.91;;;13.18;67.67
76011;BME280;64701;43.536;1.478;2023-04-12T00:52:00;99189.56;;;13.15;65.49
76011;BME280;64701;43.536;1.478;2023-04-12T00:54:29;99187.75;;;13.08;66.79
76011;BME280;64701;43.536;1.478;2023-04-12T00:56:55;99187.16;;;13.06;65.86
76011;BME280;64701;43.536;1.478;2023-04-12T00:59:21;99181.00;;;13.06;65.94
76011;BME280;64701;43.536;1.478;2023-04-12T01:01:47;99183.50;;;13.01;66.71
76011;BME280;64701;43.536;1.478;2023-04-12T01:04:13;99175.81;;;12.93;67.42
76011;BME280;64701;43.536;1.478;2023-04-12T01:06:50;99179.91;;;12.89;66.12
76011;BME280;64701;43.536;1.478;2023-04-12T01:12:01;99165.44;;;12.85;67.26
76011;BME280;64701;43.536;1.478;2023-04-12T01:14:35;99164.81;;;12.83;66.64
76011;BME280;64701;43.536;1.478;2023-04-12T01:17:05;99163.19;;;12.82;66.59
76011;BME280;64701;43.536;1.478;2023-04-12T01:22:08;99148.91;;;12.76;66.82
76011;BME280;64701;43.536;1.478;2023-04-12T01:27:09;99144.72;;;12.68;66.68
76011;BME280;64701;43.536;1.478;2023-04-12T01:29:37;99135.09;;;12.67;66.55
76011;BME280;64701;43.536;1.478;2023-04-12T01:32:03;99126.16;;;12.62;71.26
76011;BME280;64701;43.536;1.478;2023-04-12T01:34:30;99124.50;;;12.61;69.86
76011;BME280;64701;43.536;1.478;2023-04-12T01:36:57;99115.72;;;12.60;67.74
76011;BME280;64701;43.536;1.478;2023-04-12T01:39:24;99107.97;;;12.59;69.49
76011;BME280;64701;43.536;1.478;2023-04-12T01:41:49;99108.41;;;12.56;69.76
76011;BME280;64701;43.536;1.478;2023-04-12T01:44:15;99099.22;;;12.52;69.24
76011;BME280;64701;43.536;1.478;2023-04-12T01:46:41;99092.75;;;12.41;70.41
76011;BME280;64701;43.536;1.478;2023-04-12T01:49:06;99083.59;;;12.37;68.54
76011;BME280;64701;43.536;1.478;2023-04-12T01:51:38;99084.63;;;12.36;67.71
76011;BME280;64701;43.536;1.478;2023-04-12T01:54:07;99077.31;;;12.32;68.58
76011;BME280;64701;43.536;1.478;2023-04-12T01:56:37;99080.63;;;12.27;68.16
76011;BME280;64701;43.536;1.478;2023-04-12T01:59:04;99073.69;;;12.26;68.18
76011;BME280;64701;43.536;1.478;2023-04-12T02:01:29;99074.53;;;12.20;71.10
76011;BME280;64701;43.536;1.478;2023-04-12T02:03:55;99069.25;;;12.13;70.67
76011;BME280;64701;43.536;1.478;2023-04-12T02:06:23;99071.72;;;12.08;71.09
76011;BME280;64701;43.536;1.478;2023-04-12T02:08:49;99062.94;;;12.08;69.98
76011;BME280;64701;43.536;1.478;2023-04-12T02:11:14;99057.84;;;12.06;69.89
76011;BME280;64701;43.536;1.478;2023-04-12T02:13:39;99057.84;;;12.06;70.12
76011;BME280;64701;43.536;1.478;2023-04-12T02:16:05;99059.69;;;12.06;68.72
76011;BME280;64701;43.536;1.478;2023-04-12T02:18:32;99049.50;;;12.03;69.30
76011;BME280;64701;43.536;1.478;2023-04-12T02:20:59;99054.22;;;12.01;69.18
76011;BME280;64701;43.536;1.478;2023-04-12T02:23:24;99045.63;;;11.99;69.20
76011;BME280;64701;43.536;1.478;2023-04-12T02:25:50;99040.34;;;11.92;70.07
76011;BME280;64701;43.536;1.478;2023-04-12T02:28:15;99048.97;;;11.88;71.31
76011;BME280;64701;43.536;1.478;2023-04-12T02:30:40;99037.56;;;11.80;72.24
76011;BME280;64701;43.536;1.478;2023-04-12T02:33:06;99024.53;;;11.79;69.97
76011;BME280;64701;43.536;1.478;2023-04-12T02:35:33;99039.22;;;11.75;71.30
76011;BME280;64701;43.536;1.478;2023-04-12T02:37:58;99033.50;;;11.71;70.36
76011;BME280;64701;43.536;1.478;2023-04-12T02:40:24;99041.66;;;11.70;69.54
76011;BME280;64701;43.536;1.478;2023-04-12T02:42:49;99041.88;;;11.68;69.57
76011;BME280;64701;43.536;1.478;2023-04-12T02:45:14;99042.91;;;11.67;70.08
76011;BME280;64701;43.536;1.478;2023-04-12T02:47:40;99043.13;;;11.66;69.11
76011;BME280;64701;43.536;1.478;2023-04-12T02:50:05;99043.75;;;11.61;70.54
76011;BME280;64701;43.536;1.478;2023-04-12T02:52:31;99042.16;;;11.47;74.61
76011;BME280;64701;43.536;1.478;2023-04-12T02:54:57;99035.44;;;11.44;72.16
76011;BME280;64701;43.536;1.478;2023-04-12T02:57:22;99030.94;;;11.45;70.90
76011;BME280;64701;43.536;1.478;2023-04-12T02:59:51;99014.00;;;11.46;70.58
76011;BME280;64701;43.536;1.478;2023-04-12T03:02:20;99017.69;;;11.45;71.18
76011;BME280;64701;43.536;1.478;2023-04-12T03:04:46;99001.78;;;11.45;70.82
76011;BME280;64701;43.536;1.478;2023-04-12T03:07:15;99005.91;;;11.34;74.42
76011;BME280;64701;43.536;1.478;2023-04-12T03:09:41;99012.03;;;11.35;71.04
76011;BME280;64701;43.536;1.478;2023-04-12T03:12:06;99008.38;;;11.23;73.54
76011;BME280;64701;43.536;1.478;2023-04-12T03:14:32;99010.03;;;11.24;71.69
76011;BME280;64701;43.536;1.478;2023-04-12T03:16:57;99014.31;;;11.25;71.68
76011;BME280;64701;43.536;1.478;2023-04-12T03:19:22;99007.56;;;11.22;72.70
76011;BME280;64701;43.536;1.478;2023-04-12T03:21:47;99000.25;;;11.18;72.86
76011;BME280;64701;43.536;1.478;2023-04-12T03:24:13;98995.97;;;11.17;72.17
76011;BME280;64701;43.536;1.478;2023-04-12T03:26:38;98996.16;;;11.15;72.34
76011;BME280;64701;43.536;1.478;2023-04-12T03:29:03;98990.88;;;11.15;71.04
76011;BME280;64701;43.536;1.478;2023-04-12T03:31:29;98990.06;;;11.15;71.75
76011;BME280;64701;43.536;1.478;2023-04-12T03:33:55;98990.47;;;11.12;72.18
76011;BME280;64701;43.536;1.478;2023-04-12T03:36:20;98990.47;;;11.12;71.42
76011;BME280;64701;43.536;1.478;2023-04-12T03:38:46;98980.91;;;11.11;70.28
76011;BME280;64701;43.536;1.478;2023-04-12T03:41:11;98977.06;;;11.07;71.93
76011;BME280;64701;43.536;1.478;2023-04-12T03:43:36;98979.09;;;11.04;71.59
76011;BME280;64701;43.536;1.478;2023-04-12T03:46:02;98970.53;;;11.02;72.09
76011;BME280;64701;43.536;1.478;2023-04-12T03:48:28;98970.53;;;11.02;71.55
76011;BME280;64701;43.536;1.478;2023-04-12T03:50:53;98974.81;;;11.03;71.83
76011;BME280;64701;43.536;1.478;2023-04-12T03:53:19;98968.47;;;11.04;71.19
76011;BME280;64701;43.536;1.478;2023-04-12T03:55:44;98966.84;;;11.03;72.26
76011;BME280;64701;43.536;1.478;2023-04-12T03:58:10;98972.97;;;10.97;72.14
76011;BME280;64701;43.536;1.478;2023-04-12T04:00:37;98970.78;;;10.88;74.31
76011;BME280;64701;43.536;1.478;2023-04-12T04:03:03;98974.03;;;10.83;72.90
76011;BME280;64701;43.536;1.478;2023-04-12T04:05:29;98962.22;;;10.79;73.22
76011;BME280;64701;43.536;1.478;2023-04-12T04:07:55;98968.13;;;10.75;72.87
76011;BME280;64701;43.536;1.478;2023-04-12T04:10:20;98959.19;;;10.76;71.97
76011;BME280;64701;43.536;1.478;2023-04-12T04:12:46;98957.75;;;10.73;73.06
76011;BME280;64701;43.536;1.478;2023-04-12T04:15:13;98957.16;;;10.71;73.09
76011;BME280;64701;43.536;1.478;2023-04-12T04:17:38;98959.81;;;10.71;72.75
76011;BME280;64701;43.536;1.478;2023-04-12T04:20:04;98963.47;;;10.70;72.30
76011;BME280;64701;43.536;1.478;2023-04-12T04:22:29;98966.13;;;10.70;72.45
76011;BME280;64701;43.536;1.478;2023-04-12T04:24:56;98973.44;;;10.68;73.15
76011;BME280;64701;43.536;1.478;2023-04-12T04:27:22;98973.63;;;10.67;72.74
76011;BME280;64701;43.536;1.478;2023-04-12T04:29:47;98978.16;;;10.66;73.52
76011;BME280;64701;43.536;1.478;2023-04-12T04:32:15;98980.16;;;10.64;72.83
76011;BME280;64701;43.536;1.478;2023-04-12T04:34:40;98989.31;;;10.61;73.31
76011;BME280;64701;43.536;1.478;2023-04-12T04:37:05;98983.84;;;10.63;72.06
76011;BME280;64701;43.536;1.478;2023-04-12T04:39:31;98986.47;;;10.63;72.70
76011;BME280;64701;43.536;1.478;2023-04-12T04:41:57;98984.66;;;10.63;72.37
76011;BME280;64701;43.536;1.478;2023-04-12T04:44:22;98986.47;;;10.63;73.76
76011;BME280;64701;43.536;1.478;2023-04-12T04:46:49;98986.47;;;10.63;72.69
76011;BME280;64701;43.536;1.478;2023-04-12T04:49:15;98976.72;;;10.63;72.00
76011;BME280;64701;43.536;1.478;2023-04-12T04:51:40;98974.06;;;10.63;72.58
76011;BME280;64701;43.536;1.478;2023-04-12T04:54:06;98969.78;;;10.62;72.57
76011;BME280;64701;43.536;1.478;2023-04-12T04:56:31;98970.59;;;10.63;72.04
76011;BME280;64701;43.536;1.478;2023-04-12T04:58:56;98970.59;;;10.63;72.25
76011;BME280;64701;43.536;1.478;2023-04-12T05:01:22;98977.34;;;10.59;75.27
76011;BME280;64701;43.536;1.478;2023-04-12T05:03:52;98975.50;;;10.53;75.73
76011;BME280;64701;43.536;1.478;2023-04-12T05:06:19;98973.06;;;10.51;73.82
76011;BME280;64701;43.536;1.478;2023-04-12T05:08:44;98980.38;;;10.49;74.25
76011;BME280;64701;43.536;1.478;2023-04-12T05:11:10;98981.63;;;10.47;73.76
76011;BME280;64701;43.536;1.478;2023-04-12T05:13:35;98980.78;;;10.46;74.33
76011;BME280;64701;43.536;1.478;2023-04-12T05:16:04;98983.63;;;10.45;73.20
76011;BME280;64701;43.536;1.478;2023-04-12T05:18:30;98997.50;;;10.47;73.19
76011;BME280;64701;43.536;1.478;2023-04-12T05:20:55;98999.13;;;10.48;72.48
76011;BME280;64701;43.536;1.478;2023-04-12T05:23:20;98995.66;;;10.47;73.68
76011;BME280;64701;43.536;1.478;2023-04-12T05:25:46;98995.44;;;10.49;72.26
76011;BME280;64701;43.536;1.478;2023-04-12T05:28:15;99006.03;;;10.49;73.48
76011;BME280;64701;43.536;1.478;2023-04-12T05:30:41;99009.72;;;10.48;73.98
76011;BME280;64701;43.536;1.478;2023-04-12T05:33:06;99006.03;;;10.49;73.26
76011;BME280;64701;43.536;1.478;2023-04-12T05:35:32;99006.03;;;10.49;74.03
76011;BME280;64701;43.536;1.478;2023-04-12T05:37:57;98993.41;;;10.51;74.90
76011;BME280;64701;43.536;1.478;2023-04-12T05:40:22;98991.78;;;10.50;75.43
76011;BME280;64701;43.536;1.478;2023-04-12T05:42:47;98992.59;;;10.44;76.52
76011;BME280;64701;43.536;1.478;2023-04-12T05:45:13;98986.47;;;10.43;76.68
76011;BME280;64701;43.536;1.478;2023-04-12T05:47:38;98981.63;;;10.47;74.47
76011;BME280;64701;43.536;1.478;2023-04-12T05:50:03;98976.72;;;10.50;74.00
76011;BME280;64701;43.536;1.478;2023-04-12T05:52:30;98975.91;;;10.50;74.15
76011;BME280;64701;43.536;1.478;2023-04-12T05:54:56;98974.69;;;10.52;74.26
76011;BME280;64701;43.536;1.478;2023-04-12T05:57:21;98975.06;;;10.56;75.72
76011;BME280;64701;43.536;1.478;2023-04-12T05:59:46;98970.41;;;10.58;74.87
76011;BME280;64701;43.536;1.478;2023-04-12T06:02:11;98973.44;;;10.61;74.58
76011;BME280;64701;43.536;1.478;2023-04-12T06:04:37;98976.28;;;10.67;74.72
76011;BME280;64701;43.536;1.478;2023-04-12T06:07:04;98978.94;;;10.73;75.89
76011;BME280;64701;43.536;1.478;2023-04-12T06:09:30;98977.72;;;10.76;77.75
76011;BME280;64701;43.536;1.478;2023-04-12T06:11:55;98978.91;;;10.80;79.27
76011;BME280;64701;43.536;1.478;2023-04-12T06:14:21;98977.50;;;10.84;77.99
76011;BME280;64701;43.536;1.478;2023-04-12T06:16:46;98979.09;;;10.91;77.56
76011;BME280;64701;43.536;1.478;2023-04-12T06:19:11;98986.22;;;10.97;78.44
76011;BME280;64701;43.536;1.478;2023-04-12T06:21:37;98994.34;;;11.02;78.57
76011;BME280;64701;43.536;1.478;2023-04-12T06:24:02;99003.53;;;11.07;79.50
76011;BME280;64701;43.536;1.478;2023-04-12T06:26:27;98999.88;;;11.14;80.32
76011;BME280;64701;43.536;1.478;2023-04-12T06:28:52;99011.66;;;11.18;80.98
76011;BME280;64701;43.536;1.478;2023-04-12T06:31:18;99015.53;;;11.22;80.70
76011;BME280;64701;43.536;1.478;2023-04-12T06:33:43;99017.13;;;11.30;81.21
76011;BME280;64701;43.536;1.478;2023-04-12T06:36:08;99018.13;;;11.35;81.61
76011;BME280;64701;43.536;1.478;2023-04-12T06:38:35;99023.63;;;11.40;81.81
76011;BME280;64701;43.536;1.478;2023-04-12T06:41:01;99014.22;;;11.44;82.03
76011;BME280;64701;43.536;1.478;2023-04-12T06:43:26;99020.94;;;11.47;82.33
76011;BME280;64701;43.536;1.478;2023-04-12T06:45:51;99020.94;;;11.54;82.63
76011;BME280;64701;43.536;1.478;2023-04-12T06:48:16;99028.88;;;11.60;82.27
76011;BME280;64701;43.536;1.478;2023-04-12T06:50:43;99035.97;;;11.66;81.34
76011;BME280;64701;43.536;1.478;2023-04-12T06:53:08;99030.66;;;11.66;81.72
76011;BME280;64701;43.536;1.478;2023-04-12T06:55:34;99026.19;;;11.73;80.09
76011;BME280;64701;43.536;1.478;2023-04-12T06:57:59;99026.38;;;11.72;81.01
76011;BME280;64701;43.536;1.478;2023-04-12T07:00:25;99026.78;;;11.75;80.84
76011;BME280;64701;43.536;1.478;2023-04-12T07:02:50;99030.66;;;11.79;80.24
76011;BME280;64701;43.536;1.478;2023-04-12T07:05:15;99031.03;;;11.83;79.91
76011;BME280;64701;43.536;1.478;2023-04-12T07:07:41;99031.00;;;11.90;79.79
76011;BME280;64701;43.536;1.478;2023-04-12T07:10:06;99025.66;;;11.96;78.94
76011;BME280;64701;43.536;1.478;2023-04-12T07:12:32;99028.69;;;12.00;79.50
76011;BME280;64701;43.536;1.478;2023-04-12T07:14:57;99026.44;;;12.03;78.91
76011;BME280;64701;43.536;1.478;2023-04-12T07:17:23;99022.75;;;12.04;79.39
76011;BME280;64701;43.536;1.478;2023-04-12T07:19:50;99014.34;;;12.14;78.14
76011;BME280;64701;43.536;1.478;2023-04-12T07:22:16;99017.31;;;12.24;77.08
76011;BME280;64701;43.536;1.478;2023-04-12T07:24:41;99016.84;;;12.34;77.54
76011;BME280;64701;43.536;1.478;2023-04-12T07:27:06;99009.22;;;12.44;77.38
76011;BME280;64701;43.536;1.478;2023-04-12T07:29:32;98997.75;;;12.50;77.70
76011;BME280;64701;43.536;1.478;2023-04-12T07:31:58;99000.72;;;12.60;77.74
76011;BME280;64701;43.536;1.478;2023-04-12T07:34:23;98995.13;;;12.68;77.32
76011;BME280;64701;43.536;1.478;2023-04-12T07:36:48;98997.50;;;12.76;77.28
76011;BME280;64701;43.536;1.478;2023-04-12T07:39:13;98996.00;;;12.87;76.75
76011;BME280;64701;43.536;1.478;2023-04-12T07:41:39;98995.13;;;12.93;76.63
76011;BME280;64701;43.536;1.478;2023-04-12T07:44:06;98978.88;;;13.01;75.67
76011;BME280;64701;43.536;1.478;2023-04-12T07:46:31;98974.50;;;13.06;76.08
76011;BME280;64701;43.536;1.478;2023-04-12T07:48:56;98974.47;;;13.13;75.75
76011;BME280;64701;43.536;1.478;2023-04-12T07:51:22;98970.03;;;13.25;75.44
76011;BME280;64701;43.536;1.478;2023-04-12T07:53:47;98965.75;;;13.24;76.91
76011;BME280;64701;43.536;1.478;2023-04-12T07:56:13;98959.56;;;13.30;76.22
76011;BME280;64701;43.536;1.478;2023-04-12T07:58:38;98969.44;;;13.41;75.76
76011;BME280;64701;43.536;1.478;2023-04-12T08:01:04;98965.31;;;13.45;75.05
76011;BME280;64701;43.536;1.478;2023-04-12T08:03:29;98967.22;;;13.57;74.59
76011;BME280;64701;43.536;1.478;2023-04-12T08:05:55;98974.72;;;13.60;75.33
76011;BME280;64701;43.536;1.478;2023-04-12T08:08:20;98969.25;;;13.73;74.29
76011;BME280;64701;43.536;1.478;2023-04-12T08:10:47;98973.34;;;13.87;73.82
76011;BME280;64701;43.536;1.478;2023-04-12T08:13:12;98963.91;;;14.03;72.99
76011;BME280;64701;43.536;1.478;2023-04-12T08:15:37;98979.69;;;14.16;72.77
76011;BME280;64701;43.536;1.478;2023-04-12T08:18:03;98976.03;;;14.28;72.56
76011;BME280;64701;43.536;1.478;2023-04-12T08:20:28;98985.91;;;14.40;71.87
76011;BME280;64701;43.536;1.478;2023-04-12T08:22:54;98990.31;;;14.46;71.21
76011;BME280;64701;43.536;1.478;2023-04-12T08:25:19;98984.19;;;14.45;71.87
76011;BME280;64701;43.536;1.478;2023-04-12T08:27:45;98991.03;;;14.53;71.07
76011;BME280;64701;43.536;1.478;2023-04-12T08:30:10;98982.13;;;14.59;71.08
76011;BME280;64701;43.536;1.478;2023-04-12T08:32:36;98989.75;;;14.67;70.75
76011;BME280;64701;43.536;1.478;2023-04-12T08:35:02;98994.53;;;14.65;70.58
76011;BME280;64701;43.536;1.478;2023-04-12T08:37:28;98987.56;;;14.64;70.33
76011;BME280;64701;43.536;1.478;2023-04-12T08:39:53;99001.13;;;14.62;70.68
76011;BME280;64701;43.536;1.478;2023-04-12T08:42:18;98998.22;;;14.64;70.13
76011;BME280;64701;43.536;1.478;2023-04-12T08:44:44;98990.56;;;14.67;70.21
76011;BME280;64701;43.536;1.478;2023-04-12T08:47:10;98999.25;;;14.63;70.46
76011;BME280;64701;43.536;1.478;2023-04-12T08:49:35;98999.16;;;14.69;70.19
76011;BME280;64701;43.536;1.478;2023-04-12T08:52:04;98999.97;;;14.70;70.39
76011;BME280;64701;43.536;1.478;2023-04-12T08:54:30;98994.97;;;14.85;69.97
76011;BME280;64701;43.536;1.478;2023-04-12T08:56:56;98998.00;;;14.89;69.85
76011;BME280;64701;43.536;1.478;2023-04-12T08:59:23;98998.69;;;14.96;69.81
76011;BME280;64701;43.536;1.478;2023-04-12T09:01:49;98993.47;;;15.01;69.92
76011;BME280;64701;43.536;1.478;2023-04-12T09:04:15;98994.97;;;15.08;70.29
76011;BME280;64701;43.536;1.478;2023-04-12T09:06:40;98994.84;;;15.15;69.01
76011;BME280;64701;43.536;1.478;2023-04-12T09:09:06;98991.75;;;15.06;68.02
76011;BME280;64701;43.536;1.478;2023-04-12T09:11:31;99001.47;;;15.13;68.02
76011;BME280;64701;43.536;1.478;2023-04-12T09:13:57;98994.72;;;15.22;67.66
76011;BME280;64701;43.536;1.478;2023-04-12T09:19:00;98999.22;;;15.33;66.91
76011;BME280;64701;43.536;1.478;2023-04-12T09:21:27;98996.53;;;15.44;66.55
76011;BME280;64701;43.536;1.478;2023-04-12T09:26:33;98996.88;;;15.60;65.59
76011;BME280;64701;43.536;1.478;2023-04-12T09:28:58;99003.22;;;15.70;65.24
76011;BME280;64701;43.536;1.478;2023-04-12T09:31:25;98994.50;;;15.75;65.06
76011;BME280;64701;43.536;1.478;2023-04-12T09:33:50;98994.47;;;15.86;64.84
76011;BME280;64701;43.536;1.478;2023-04-12T09:36:16;98993.84;;;15.96;64.14
76011;BME280;64701;43.536;1.478;2023-04-12T09:38:59;98994.66;;;15.97;62.39
76011;BME280;64701;43.536;1.478;2023-04-12T09:41:28;99002.19;;;16.00;62.44
76011;BME280;64701;43.536;1.478;2023-04-12T09:43:56;99002.28;;;16.05;62.28
76011;BME280;64701;43.536;1.478;2023-04-12T09:46:22;98996.31;;;16.14;61.76
76011;BME280;64701;43.536;1.478;2023-04-12T09:48:48;98997.84;;;16.27;61.89
76011;BME280;64701;43.536;1.478;2023-04-12T09:51:22;99002.88;;;16.40;61.52
76011;BME280;64701;43.536;1.478;2023-04-12T09:53:47;99000.56;;;16.44;61.72
76011;BME280;64701;43.536;1.478;2023-04-12T09:56:14;99006.50;;;16.62;62.20
76011;BME280;64701;43.536;1.478;2023-04-12T09:58:40;98997.25;;;16.70;60.90
76011;BME280;64701;43.536;1.478;2023-04-12T10:01:06;98993.59;;;16.76;60.17
76011;BME280;64701;43.536;1.478;2023-04-12T10:03:33;98991.41;;;16.90;60.41
76011;BME280;64701;43.536;1.478;2023-04-12T10:05:59;99000.63;;;16.99;60.27
76011;BME280;64701;43.536;1.478;2023-04-12T10:08:24;98993.59;;;17.09;59.91
76011;BME280;64701;43.536;1.478;2023-04-12T10:10:50;98995.44;;;17.09;58.26
76011;BME280;64701;43.536;1.478;2023-04-12T10:13:16;98993.31;;;17.11;58.33
76011;BME280;64701;43.536;1.478;2023-04-12T10:15:44;98998.44;;;17.12;58.35
76011;BME280;64701;43.536;1.478;2023-04-12T10:18:09;99002.66;;;17.08;57.72
76011;BME280;64701;43.536;1.478;2023-04-12T10:20:35;99001.16;;;17.18;57.77
76011;BME280;64701;43.536;1.478;2023-04-12T10:23:04;98997.50;;;17.24;57.67
76011;BME280;64701;43.536;1.478;2023-04-12T10:25:30;99004.78;;;17.28;57.45
76011;BME280;64701;43.536;1.478;2023-04-12T10:27:55;99004.94;;;17.38;56.96
76011;BME280;64701;43.536;1.478;2023-04-12T10:30:21;99000.75;;;17.47;58.24
76011;BME280;64701;43.536;1.478;2023-04-12T10:33:32;98992.25;;;17.50;57.34
76011;BME280;64701;43.536;1.478;2023-04-12T10:35:52;98988.13;;;17.65;57.91
76011;BME280;64701;43.536;1.478;2023-04-12T10:38:18;98986.13;;;17.77;56.61
76011;BME280;64701;43.536;1.478;2023-04-12T10:43:28;98980.56;;;18.05;56.01
76011;BME280;64701;43.536;1.478;2023-04-12T10:45:54;98974.28;;;18.21;56.89
76011;BME280;64701;43.536;1.478;2023-04-12T10:53:38;98971.69;;;18.58;54.97
76011;BME280;64701;43.536;1.478;2023-04-12T11:01:13;98958.59;;;18.72;55.02
76011;BME280;64701;43.536;1.478;2023-04-12T11:06:41;98968.88;;;18.80;53.65
76011;BME280;64701;43.536;1.478;2023-04-12T11:09:17;98966.66;;;18.72;52.12
76011;BME280;64701;43.536;1.478;2023-04-12T11:11:42;98964.59;;;18.84;52.35
76011;BME280;64701;43.536;1.478;2023-04-12T11:14:11;98973.78;;;18.93;52.58
76011;BME280;64701;43.536;1.478;2023-04-12T11:19:21;98967.84;;;18.91;53.17
76011;BME280;64701;43.536;1.478;2023-04-12T11:21:47;98959.31;;;18.94;52.11
76011;BME280;64701;43.536;1.478;2023-04-12T11:24:12;98959.75;;;18.81;50.78
76011;BME280;64701;43.536;1.478;2023-04-12T11:26:38;98962.94;;;18.78;50.90
76011;BME280;64701;43.536;1.478;2023-04-12T11:29:07;98960.63;;;18.55;50.81
76011;BME280;64701;43.536;1.478;2023-04-12T11:31:32;98953.56;;;18.44;50.62
76011;BME280;64701;43.536;1.478;2023-04-12T11:33:58;98962.06;;;18.35;50.79
76011;BME280;64701;43.536;1.478;2023-04-12T11:36:23;98952.34;;;18.29;51.41
76011;BME280;64701;43.536;1.478;2023-04-12T11:38:50;98959.25;;;18.20;51.77
76011;BME280;64701;43.536;1.478;2023-04-12T11:41:16;98959.75;;;18.17;51.66
76011;BME280;64701;43.536;1.478;2023-04-12T11:43:42;98968.31;;;18.14;51.92
76011;BME280;64701;43.536;1.478;2023-04-12T11:46:08;98977.88;;;18.05;52.35
76011;BME280;64701;43.536;1.478;2023-04-12T11:48:34;98968.66;;;17.96;52.90
76011;BME280;64701;43.536;1.478;2023-04-12T11:51:23;98971.75;;;17.83;52.44
76011;BME280;64701;43.536;1.478;2023-04-12T11:53:53;98970.59;;;17.74;52.44
76011;BME280;64701;43.536;1.478;2023-04-12T11:56:18;98987.47;;;17.74;53.28
76011;BME280;64701;43.536;1.478;2023-04-12T11:58:47;98981.53;;;17.72;53.79
76011;BME280;64701;43.536;1.478;2023-04-12T12:01:13;98983.84;;;17.64;54.72
76011;BME280;64701;43.536;1.478;2023-04-12T12:03:38;98989.50;;;17.45;54.89
76011;BME280;64701;43.536;1.478;2023-04-12T12:06:04;98991.19;;;17.51;54.67
76011;BME280;64701;43.536;1.478;2023-04-12T12:08:30;98996.78;;;17.50;54.56
76011;BME280;64701;43.536;1.478;2023-04-12T12:10:56;99000.41;;;17.39;55.14
76011;BME280;64701;43.536;1.478;2023-04-12T12:13:21;99010.63;;;17.25;55.64
76011;BME280;64701;43.536;1.478;2023-04-12T12:15:46;99008.44;;;17.22;55.88
76011;BME280;64701;43.536;1.478;2023-04-12T12:18:15;99010.69;;;17.08;57.07
76011;BME280;64701;43.536;1.478;2023-04-12T12:20:41;99005.56;;;17.07;57.27
76011;BME280;64701;43.536;1.478;2023-04-12T12:23:06;99005.50;;;17.02;57.20
76011;BME280;64701;43.536;1.478;2023-04-12T12:25:32;99006.88;;;16.88;57.15
76011;BME280;64701;43.536;1.478;2023-04-12T12:27:57;99003.75;;;16.91;58.36
76011;BME280;64701;43.536;1.478;2023-04-12T12:30:23;99007.88;;;16.82;58.42
76011;BME280;64701;43.536;1.478;2023-04-12T12:32:49;99008.91;;;16.81;58.41
76011;BME280;64701;43.536;1.478;2023-04-12T12:35:14;99011.44;;;16.70;58.60
76011;BME280;64701;43.536;1.478;2023-04-12T12:37:49;99013.59;;;16.57;59.23
76011;BME280;64701;43.536;1.478;2023-04-12T12:40:16;99017.50;;;16.49;59.57
76011;BME280;64701;43.536;1.478;2023-04-12T12:42:52;99017.88;;;16.41;60.49
76011;BME280;64701;43.536;1.478;2023-04-12T12:45:19;99027.66;;;16.36;61.07
76011;BME280;64701;43.536;1.478;2023-04-12T12:50:11;99040.59;;;16.27;63.05
76011;BME280;64701;43.536;1.478;2023-04-12T12:52:38;99051.28;;;16.27;63.83
76011;BME280;64701;43.536;1.478;2023-04-12T12:55:03;99049.16;;;16.12;64.50
76011;BME280;64701;43.536;1.478;2023-04-12T12:57:29;99048.47;;;16.05;65.21
76011;BME280;64701;43.536;1.478;2023-04-12T12:59:54;99053.50;;;16.02;66.49
76011;BME280;64701;43.536;1.478;2023-04-12T13:02:19;99061.97;;;15.99;65.74
76011;BME280;64701;43.536;1.478;2023-04-12T13:04:45;99063.50;;;15.95;67.60
76011;BME280;64701;43.536;1.478;2023-04-12T13:07:10;99091.91;;;15.72;70.84
76011;BME280;64701;43.536;1.478;2023-04-12T13:09:35;99127.03;;;15.23;72.66
76011;BME280;64701;43.536;1.478;2023-04-12T13:12:00;99144.19;;;14.62;70.62
76011;BME280;64701;43.536;1.478;2023-04-12T13:14:26;99157.78;;;14.24;71.32
76011;BME280;64701;43.536;1.478;2023-04-12T13:16:51;99168.53;;;13.81;71.71
76011;BME280;64701;43.536;1.478;2023-04-12T13:19:16;99169.84;;;13.47;74.50
76011;BME280;64701;43.536;1.478;2023-04-12T13:21:42;99159.13;;;13.35;75.67
76011;BME280;64701;43.536;1.478;2023-04-12T13:24:07;99162.34;;;13.19;75.56
76011;BME280;64701;43.536;1.478;2023-04-12T13:26:33;99167.03;;;12.92;78.30
76011;BME280;64701;43.536;1.478;2023-04-12T13:28:58;99173.56;;;12.90;76.86